Time;durP1;ratioP1;P1;durP2;ratioP2;P2;SDS_P1;SDS_P2;PMS_P1;PMS_P2;Temp;Humidity;BMP_temperature;BMP_pressure;BME280_temperature;BME280_humidity;BME280_pressure;Samples;Min_cycle;Max_cycle;Signal;HPM_P1;HPM_P2
2022/06/02 00:01:28;;;;;;;11.20;5.40;;;;;;;22.91;44.84;100466.98;117342;1181;23627;-57
2022/06/02 00:04:16;;;;;;;9.00;5.60;;;;;;;22.87;44.93;100465.99;117335;1186;21929;-55
2022/06/02 00:07:05;;;;;;;9.80;5.40;;;;;;;22.83;45.13;100465.17;117320;1184;23560;-50
2022/06/02 00:09:44;;;;;;;11.70;5.50;;;;;;;22.80;45.07;100465.13;117293;1182;22920;-50
2022/06/02 00:12:18;;;;;;;10.40;5.40;;;;;;;22.72;45.38;100459.92;117311;1184;24250;-56
2022/06/02 00:15:00;;;;;;;10.60;6.00;;;;;;;22.69;45.40;100462.81;117265;1185;21864;-52
2022/06/02 00:17:32;;;;;;;9.70;5.80;;;;;;;22.68;45.39;100466.80;117203;1184;23551;-50
2022/06/02 00:20:05;;;;;;;10.00;5.30;;;;;;;22.66;45.47;100464.37;117326;1182;22899;-50
2022/06/02 00:22:41;;;;;;;12.80;5.80;;;;;;;22.67;45.50;100461.13;117183;1183;22819;-50
2022/06/02 00:25:17;;;;;;;8.60;6.20;;;;;;;22.65;45.60;100461.62;117317;1184;23621;-51
2022/06/02 00:28:06;;;;;;;8.60;5.40;;;;;;;22.62;45.55;100462.11;117289;1182;23573;-56
2022/06/02 00:30:37;;;;;;;9.10;5.60;;;;;;;22.61;45.56;100465.45;117368;1185;21856;-57
2022/06/02 00:33:29;;;;;;;8.40;5.20;;;;;;;22.58;45.57;100467.19;117272;1181;24143;-50
2022/06/02 00:35:58;;;;;;;10.10;5.40;;;;;;;22.59;45.70;100466.82;117293;1184;22947;-50
2022/06/02 00:38:30;;;;;;;8.80;5.10;;;;;;;22.58;45.80;100468.48;117092;1184;22932;-56
2022/06/02 00:41:09;;;;;;;8.60;5.00;;;;;;;22.58;45.82;100470.59;117380;1183;22081;-56
2022/06/02 00:43:43;;;;;;;10.50;5.30;;;;;;;22.57;45.77;100472.48;117379;1182;24810;-56
2022/06/02 00:46:35;;;;;;;9.10;5.30;;;;;;;22.52;45.83;100469.56;117305;1186;21840;-56
2022/06/02 00:49:20;;;;;;;12.30;6.30;;;;;;;22.49;45.95;100470.99;117351;1186;22919;-50
2022/06/02 00:51:50;;;;;;;6.90;5.20;;;;;;;22.46;45.87;100472.06;117343;1186;22961;-50
2022/06/02 00:57:38;;;;;;;9.80;5.70;;;;;;;22.41;45.95;100481.79;117151;1182;22918;-49
2022/06/02 01:00:39;;;;;;;8.40;5.20;;;;;;;22.40;46.11;100481.88;117262;1182;24144;-55
2022/06/02 01:03:06;;;;;;;9.90;5.30;;;;;;;22.37;46.07;100482.23;116949;1181;23477;-54
2022/06/02 01:05:52;;;;;;;10.90;5.70;;;;;;;22.33;45.98;100481.02;117372;1185;21875;-56
2022/06/02 01:08:37;;;;;;;8.10;5.40;;;;;;;22.29;46.01;100480.52;117335;1182;22989;-54
2022/06/02 01:11:10;;;;;;;9.70;5.30;;;;;;;22.26;46.18;100483.02;117285;1185;24145;-49
2022/06/02 01:13:43;;;;;;;9.00;5.20;;;;;;;22.25;46.13;100481.70;117373;1183;22900;-50
2022/06/02 01:16:27;;;;;;;8.10;5.10;;;;;;;22.24;46.17;100479.77;117355;1185;23452;-56
2022/06/02 01:18:57;;;;;;;10.60;5.90;;;;;;;22.23;46.19;100481.41;117354;1185;21917;-50
2022/06/02 01:21:42;;;;;;;10.60;5.40;;;;;;;22.22;46.27;100477.17;117321;1182;22916;-55
2022/06/02 01:24:46;;;;;;;19.30;6.20;;;;;;;22.22;46.42;100477.37;117373;1183;23721;-55
2022/06/02 01:27:31;;;;;;;7.00;4.80;;;;;;;22.20;46.43;100478.02;117352;1182;23544;-55
2022/06/02 01:30:13;;;;;;;6.90;5.10;;;;;;;22.17;46.39;100478.23;117293;1185;23740;-55
2022/06/02 01:33:05;;;;;;;10.40;5.80;;;;;;;22.13;46.26;100478.08;117110;1184;24152;-50
2022/06/02 01:35:35;;;;;;;8.70;5.60;;;;;;;22.08;46.33;100480.52;117376;1186;21853;-50
2022/06/02 01:38:02;;;;;;;9.20;5.70;;;;;;;22.04;46.43;100480.92;117019;1185;24225;-56
2022/06/02 01:40:48;;;;;;;7.20;5.40;;;;;;;22.03;46.41;100480.84;117351;1185;22983;-50
2022/06/02 01:43:18;;;;;;;10.40;6.30;;;;;;;21.97;46.47;100482.41;117136;1183;23544;-55
2022/06/02 01:46:23;;;;;;;9.80;6.20;;;;;;;21.92;46.44;100484.82;117141;1185;21897;-50
2022/06/02 01:48:59;;;;;;;12.30;5.80;;;;;;;21.90;46.45;100480.83;117023;1185;22944;-51
2022/06/02 01:51:38;;;;;;;12.70;5.60;;;;;;;21.90;46.52;100478.38;117081;1188;21945;-50
2022/06/02 01:54:08;;;;;;;13.30;6.30;;;;;;;21.90;46.61;100476.75;117241;1183;24226;-55
2022/06/02 01:56:46;;;;;;;11.60;5.30;;;;;;;21.89;46.66;100481.61;117086;1186;21875;-55
2022/06/02 01:59:38;;;;;;;12.80;6.10;;;;;;;21.89;46.68;100477.02;117216;1183;23446;-56
2022/06/02 02:02:39;;;;;;;10.40;5.30;;;;;;;21.89;46.72;100476.29;117222;1184;22945;-56
2022/06/02 02:05:26;;;;;;;9.90;6.20;;;;;;;21.88;46.80;100475.60;117251;1186;22932;-56
2022/06/02 02:08:30;;;;;;;10.30;5.40;;;;;;;21.88;46.82;100477.41;117139;1187;23677;-56
2022/06/02 02:11:19;;;;;;;9.00;5.60;;;;;;;21.86;46.75;100488.55;117299;1185;22010;-56
2022/06/02 02:14:07;;;;;;;18.70;6.60;;;;;;;21.87;46.84;100490.88;117321;1181;22938;-56
2022/06/02 02:16:52;;;;;;;10.60;5.70;;;;;;;21.86;46.92;100490.39;117326;1183;23563;-51
2022/06/02 02:19:23;;;;;;;8.90;5.90;;;;;;;21.82;46.84;100490.05;117116;1183;22904;-52
2022/06/02 02:22:09;;;;;;;12.20;6.80;;;;;;;21.81;46.85;100496.39;117299;1182;24155;-51
2022/06/02 02:24:59;;;;;;;11.50;7.40;;;;;;;21.82;46.90;100495.41;117311;1182;22922;-56
2022/06/02 02:28:02;;;;;;;9.40;6.30;;;;;;;21.80;47.01;100491.05;117416;1184;24157;-52
2022/06/02 02:30:26;;;;;;;15.70;6.70;;;;;;;21.79;46.96;100496.99;117294;1176;22969;-56
2022/06/02 02:33:34;;;;;;;12.70;6.00;;;;;;;21.78;47.07;100502.23;117008;1184;23592;-51
2022/06/02 02:36:13;;;;;;;10.90;6.60;;;;;;;21.79;47.02;100503.81;117100;1185;22976;-57
2022/06/02 02:39:03;;;;;;;10.80;6.90;;;;;;;21.80;47.06;100503.04;117294;1182;23542;-56
2022/06/02 02:41:37;;;;;;;11.20;7.30;;;;;;;21.81;47.14;100498.69;117246;1181;22919;-57
2022/06/02 02:44:35;;;;;;;11.60;6.60;;;;;;;21.81;47.14;100498.67;117320;1182;24145;-51
2022/06/02 02:47:06;;;;;;;9.00;6.00;;;;;;;21.82;47.22;100500.06;117314;1182;22320;-51
2022/06/02 02:49:37;;;;;;;10.20;6.20;;;;;;;21.85;47.31;100496.50;117344;1182;24176;-56
2022/06/02 02:52:17;;;;;;;15.60;6.20;;;;;;;21.88;47.26;100494.52;117457;1185;23583;-57
2022/06/02 02:54:52;;;;;;;13.10;6.80;;;;;;;21.88;47.37;100494.90;117360;1185;22956;-51
2022/06/02 02:57:42;;;;;;;11.30;6.30;;;;;;;21.89;47.46;100496.66;117141;1183;21958;-51
2022/06/02 03:00:22;;;;;;;9.50;5.90;;;;;;;21.91;47.58;100493.64;117361;1182;22817;-52
2022/06/02 03:03:05;;;;;;;9.90;6.40;;;;;;;21.95;47.47;100494.11;117085;1187;23894;-57
2022/06/02 03:05:41;;;;;;;10.10;6.60;;;;;;;22.00;47.54;100490.27;117354;1186;22919;-56
2022/06/02 03:08:12;;;;;;;9.60;6.60;;;;;;;22.03;47.59;100491.01;117300;1183;22992;-57
2022/06/02 03:10:39;;;;;;;9.60;5.90;;;;;;;22.07;47.59;100491.67;117097;1183;22526;-51
2022/06/02 03:13:12;;;;;;;8.30;5.70;;;;;;;22.11;47.67;100494.11;117191;1188;23468;-56
2022/06/02 03:15:41;;;;;;;10.20;5.90;;;;;;;22.14;47.72;100491.79;117350;1182;24329;-57
2022/06/02 03:18:27;;;;;;;8.60;5.80;;;;;;;22.18;47.63;100493.54;117361;1184;23075;-56
2022/06/02 03:20:59;;;;;;;9.50;6.10;;;;;;;22.21;47.67;100499.05;117277;1185;23544;-56
2022/06/02 03:23:42;;;;;;;11.10;6.00;;;;;;;22.26;47.86;100501.63;117325;1185;22922;-57
2022/06/02 03:26:16;;;;;;;9.60;5.80;;;;;;;22.31;47.80;100502.94;117339;1183;23564;-56
2022/06/02 03:29:03;;;;;;;7.50;6.30;;;;;;;22.37;47.90;100503.29;117348;1182;21977;-57
2022/06/02 03:31:33;;;;;;;15.20;6.10;;;;;;;22.44;47.92;100504.16;117221;1185;23544;-51
2022/06/02 03:34:24;;;;;;;8.70;5.60;;;;;;;22.52;47.85;100505.49;117327;1186;23466;-53
2022/06/02 03:36:58;;;;;;;;;;;;;;;22.60;47.97;100504.27;117354;1181;24207;-55
2022/06/02 03:40:03;;;;;;;8.30;6.00;;;;;;;22.70;48.01;100500.83;117133;1184;21897;-52
2022/06/02 03:42:47;;;;;;;13.70;5.90;;;;;;;22.80;48.01;100500.38;117296;1184;24155;-51
2022/06/02 03:45:39;;;;;;;8.00;6.10;;;;;;;22.91;48.03;100499.02;117013;1184;22923;-56
2022/06/02 03:48:12;;;;;;;10.60;5.90;;;;;;;23.03;48.06;100501.86;117374;1185;22886;-56
2022/06/02 03:51:14;;;;;;;11.00;6.30;;;;;;;23.12;48.08;100499.69;117321;1182;22989;-57
2022/06/02 03:53:48;;;;;;;14.20;6.70;;;;;;;23.21;48.23;100505.17;117332;1182;23439;-51
2022/06/02 03:56:33;;;;;;;10.40;5.70;;;;;;;23.31;48.31;100508.89;117315;1185;23432;-52
2022/06/02 03:59:00;;;;;;;11.00;6.00;;;;;;;23.42;48.38;100508.18;117051;1182;24166;-57
2022/06/02 04:01:37;;;;;;;12.80;6.30;;;;;;;23.52;48.33;100505.59;117329;1186;21922;-51
2022/06/02 04:04:11;;;;;;;8.40;6.10;;;;;;;23.63;48.30;100507.54;117335;1185;21844;-56
2022/06/02 04:06:53;;;;;;;9.00;5.70;;;;;;;23.76;48.17;100508.12;117275;1182;22908;-57
2022/06/02 04:09:59;;;;;;;10.70;6.50;;;;;;;23.85;48.23;100512.20;117130;1182;23556;-51
2022/06/02 04:16:17;;;;;;;10.10;6.70;;;;;;;24.11;48.23;100517.89;117348;1182;22795;-56
2022/06/02 04:22:27;;;;;;;10.10;5.80;;;;;;;24.39;48.23;100513.84;117006;1185;23551;-57
2022/06/02 04:25:12;;;;;;;14.90;5.90;;;;;;;24.52;48.32;100514.05;117173;1183;21857;-57
2022/06/02 04:28:11;;;;;;;9.70;5.50;;;;;;;24.65;48.45;100517.48;117270;1182;24163;-53
2022/06/02 04:30:56;;;;;;;10.30;6.00;;;;;;;24.82;48.59;100518.43;117210;1188;21838;-56
2022/06/02 04:33:41;;;;;;;11.00;6.50;;;;;;;25.04;48.64;100513.48;117147;1186;22902;-53
2022/06/02 04:36:13;;;;;;;13.10;6.60;;;;;;;25.24;48.53;100508.16;117089;1182;22935;-56
2022/06/02 04:38:59;;;;;;;10.10;6.50;;;;;;;25.44;48.60;100514.44;117373;1181;22914;-57
2022/06/02 04:41:44;;;;;;;13.10;5.80;;;;;;;25.70;48.73;100510.06;117329;1182;22094;-54
2022/06/02 04:44:23;;;;;;;10.60;6.50;;;;;;;25.90;48.52;100507.70;117344;1186;21849;-57
2022/06/02 04:47:36;;;;;;;12.60;7.00;;;;;;;26.02;48.42;100508.41;117074;1185;24166;-56
2022/06/02 04:50:15;;;;;;;10.00;5.90;;;;;;;26.19;48.38;100514.20;117148;1185;22942;-57
2022/06/02 04:52:48;;;;;;;12.90;6.80;;;;;;;26.39;48.42;100520.21;117132;1182;23544;-57
2022/06/02 04:55:20;;;;;;;9.20;6.40;;;;;;;26.53;48.20;100516.42;117224;1185;23459;-57
2022/06/02 04:58:04;;;;;;;9.60;6.30;;;;;;;26.64;48.22;100517.43;117005;1182;23544;-57
2022/06/02 05:00:54;;;;;;;13.10;6.30;;;;;;;26.78;48.31;100521.35;117427;1182;23006;-53
2022/06/02 05:03:24;;;;;;;14.30;7.50;;;;;;;26.97;48.32;100517.94;117265;1187;22919;-54
2022/06/02 05:06:03;;;;;;;16.20;8.10;;;;;;;27.18;48.40;100512.31;117230;1183;22005;-57
2022/06/02 05:08:59;;;;;;;12.80;6.20;;;;;;;27.41;48.48;100512.23;117367;1182;21960;-57
2022/06/02 05:11:54;;;;;;;11.10;7.80;;;;;;;27.63;48.35;100511.22;117141;1185;22834;-57
2022/06/02 05:14:40;;;;;;;10.60;5.50;;;;;;;27.78;48.22;100512.37;117089;1184;22588;-57
2022/06/02 05:17:07;;;;;;;9.10;5.10;;;;;;;27.95;48.19;100515.40;117245;1186;21890;-58
2022/06/02 05:19:43;;;;;;;12.40;5.80;;;;;;;28.16;48.14;100516.58;117223;1185;21849;-58
2022/06/02 05:22:22;;;;;;;9.30;5.10;;;;;;;28.37;48.18;100515.21;117322;1185;23262;-54
2022/06/02 05:24:56;;;;;;;13.10;6.00;;;;;;;28.52;48.10;100512.32;117265;1183;23009;-54
2022/06/02 05:28:04;;;;;;;11.40;5.50;;;;;;;28.69;48.21;100518.75;117084;1185;23544;-53
2022/06/02 05:31:10;;;;;;;15.60;7.70;;;;;;;28.93;48.19;100517.77;117110;1185;21852;-53
2022/06/02 05:33:58;;;;;;;9.10;5.80;;;;;;;29.24;48.12;100515.99;116948;1185;23545;-53
2022/06/02 05:36:46;;;;;;;9.70;5.50;;;;;;;29.44;47.85;100516.36;116931;1186;21927;-54
2022/06/02 05:39:21;;;;;;;12.70;5.50;;;;;;;29.64;48.01;100515.54;117078;1185;22920;-56
2022/06/02 05:42:13;;;;;;;12.60;5.70;;;;;;;29.81;47.84;100511.98;117207;1186;21880;-55
2022/06/02 05:44:43;;;;;;;10.90;5.60;;;;;;;30.02;47.95;100514.30;117394;1185;21962;-56
2022/06/02 05:47:10;;;;;;;8.30;5.10;;;;;;;30.23;47.86;100515.98;117332;1182;23541;-54
2022/06/02 05:49:59;;;;;;;10.10;5.30;;;;;;;30.44;47.86;100514.36;117198;1186;23249;-54
2022/06/02 05:52:41;;;;;;;9.60;4.50;;;;;;;30.63;47.58;100517.30;117319;1182;23560;-54
2022/06/02 05:55:24;;;;;;;9.40;5.80;;;;;;;30.71;47.42;100518.56;117398;1185;22962;-57
2022/06/02 05:58:17;;;;;;;9.40;4.80;;;;;;;30.80;47.42;100518.93;117335;1186;21974;-56
2022/06/02 06:00:45;;;;;;;11.50;4.80;;;;;;;30.96;47.63;100523.42;117359;1182;22909;-56
2022/06/02 06:03:32;;;;;;;9.80;5.20;;;;;;;31.18;47.73;100523.52;117359;1185;21847;-54
2022/06/02 06:06:28;;;;;;;8.90;5.00;;;;;;;31.43;47.53;100525.02;117317;1185;21871;-57
2022/06/02 06:09:02;;;;;;;12.60;5.00;;;;;;;31.66;47.47;100521.02;117299;1183;21963;-54
2022/06/02 06:11:54;;;;;;;13.50;5.50;;;;;;;31.90;47.55;100517.52;117339;1183;23877;-54
2022/06/02 06:14:40;;;;;;;10.20;5.10;;;;;;;32.11;47.35;100515.95;117253;1185;22172;-58
2022/06/02 06:17:36;;;;;;;8.50;4.40;;;;;;;32.31;47.38;100513.58;117338;1183;23560;-55
2022/06/02 06:20:08;;;;;;;9.20;4.80;;;;;;;32.59;47.43;100513.09;117251;1183;21893;-57
2022/06/02 06:23:13;;;;;;;8.30;4.30;;;;;;;32.85;47.27;100518.79;117331;1182;22804;-58
2022/06/02 06:26:11;;;;;;;11.10;4.90;;;;;;;33.04;47.05;100516.42;117275;1183;23553;-56
2022/06/02 06:28:49;;;;;;;10.90;5.30;;;;;;;33.28;47.10;100519.34;117311;1186;21890;-56
2022/06/02 06:31:26;;;;;;;13.20;5.40;;;;;;;33.54;46.92;100521.20;117107;1183;23556;-54
2022/06/02 06:34:25;;;;;;;11.10;4.90;;;;;;;33.68;46.69;100521.25;117347;1185;21855;-57
2022/06/02 06:37:08;;;;;;;15.00;4.70;;;;;;;33.86;46.77;100519.56;117257;1186;24595;-56
2022/06/02 06:40:03;;;;;;;10.80;6.50;;;;;;;34.11;46.66;100517.59;117075;1184;22918;-55
2022/06/02 06:42:37;;;;;;;8.90;5.20;;;;;;;34.30;46.33;100518.03;117142;1180;23571;-57
2022/06/02 06:45:15;;;;;;;10.30;5.10;;;;;;;34.47;46.28;100521.84;117052;1183;23008;-58
2022/06/02 06:48:02;;;;;;;12.10;4.60;;;;;;;34.62;46.02;100527.79;117338;1182;22616;-56
2022/06/02 06:50:40;;;;;;;8.80;4.80;;;;;;;34.78;46.19;100528.54;117256;1188;21849;-54
2022/06/02 06:53:26;;;;;;;7.20;4.40;;;;;;;35.02;46.34;100532.30;117297;1184;22803;-56
2022/06/02 06:56:17;;;;;;;8.20;4.40;;;;;;;35.19;46.15;100531.63;117298;1186;22988;-54
2022/06/02 06:59:03;;;;;;;8.00;3.70;;;;;;;35.33;45.61;100531.11;117331;1185;22922;-56
2022/06/02 07:02:10;;;;;;;10.00;4.00;;;;;;;35.52;45.58;100534.35;117062;1185;22175;-55
2022/06/02 07:05:01;;;;;;;9.10;4.10;;;;;;;35.75;45.44;100529.67;117258;1185;22922;-54
2022/06/02 07:07:59;;;;;;;12.60;4.30;;;;;;;35.99;45.63;100534.22;117338;1186;21852;-56
2022/06/02 07:10:44;;;;;;;8.90;4.00;;;;;;;36.24;45.53;100532.85;117327;1185;23538;-57
2022/06/02 07:13:31;;;;;;;12.00;4.50;;;;;;;36.52;45.45;100533.98;117188;1183;22105;-58
2022/06/02 07:16:05;;;;;;;11.60;4.20;;;;;;;36.76;45.27;100531.23;117058;1184;22566;-56
2022/06/02 07:18:53;;;;;;;10.80;4.70;;;;;;;36.95;45.07;100529.53;117236;1181;23600;-54
2022/06/02 07:21:28;;;;;;;23.40;7.60;;;;;;;37.14;44.94;100531.02;117290;1185;23638;-57
2022/06/02 07:24:27;;;;;;;27.90;9.00;;;;;;;37.28;44.65;100524.36;117048;1187;22853;-55
2022/06/02 07:27:06;;;;;;;19.80;7.10;;;;;;;37.31;44.57;100527.82;117308;1184;23466;-55
2022/06/02 07:29:58;;;;;;;10.80;4.30;;;;;;;37.35;44.41;100525.50;117251;1185;21845;-58
2022/06/02 07:32:31;;;;;;;8.90;4.60;;;;;;;37.32;44.30;100528.21;117307;1182;21866;-56
2022/06/02 07:35:02;;;;;;;10.10;4.70;;;;;;;37.39;44.24;100530.02;117376;1180;23472;-55
2022/06/02 07:37:52;;;;;;;10.60;4.00;;;;;;;37.53;44.24;100528.47;117198;1186;23374;-55
2022/06/02 07:40:29;;;;;;;9.80;4.20;;;;;;;37.74;44.21;100530.23;117130;1183;22946;-56
2022/06/02 07:43:11;;;;;;;10.10;4.20;;;;;;;38.03;44.22;100535.53;116989;1186;24133;-58
2022/06/02 07:46:16;;;;;;;8.30;3.60;;;;;;;38.34;43.93;100528.85;117963;1186;23212;-56
2022/06/02 07:48:50;;;;;;;8.90;3.60;;;;;;;38.63;43.83;100530.34;119340;1186;21820;-57
2022/06/02 07:51:28;;;;;;;10.20;3.70;;;;;;;38.84;43.49;100531.09;117846;1185;21945;-55
2022/06/02 07:54:22;;;;;;;10.40;4.90;;;;;;;38.93;43.26;100531.59;117253;1183;21853;-57
2022/06/02 07:57:21;;;;;;;8.70;3.90;;;;;;;38.94;42.92;100535.30;117300;1186;21870;-57
2022/06/02 08:00:03;;;;;;;8.40;3.60;;;;;;;39.07;43.13;100537.06;116948;1187;23553;-57
2022/06/02 08:02:38;;;;;;;10.40;4.00;;;;;;;39.22;42.80;100535.59;117220;1185;24621;-57
2022/06/02 08:05:27;;;;;;;13.60;3.40;;;;;;;39.37;42.83;100538.41;117262;1185;22138;-56
2022/06/02 08:07:55;;;;;;;9.10;3.90;;;;;;;39.56;42.91;100541.33;117024;1186;23704;-56
2022/06/02 08:10:32;;;;;;;8.90;3.70;;;;;;;39.66;42.69;100541.52;117081;1184;23491;-58
2022/06/02 08:13:15;;;;;;;9.20;3.50;;;;;;;39.87;42.35;100543.92;117157;1185;23464;-56
2022/06/02 08:15:50;;;;;;;10.70;3.90;;;;;;;40.17;42.38;100541.17;117105;1184;21951;-57
2022/06/02 08:18:36;;;;;;;8.40;3.60;;;;;;;40.42;42.30;100540.73;117278;1188;21891;-57
2022/06/02 08:21:15;;;;;;;8.80;3.40;;;;;;;40.64;42.16;100540.02;117434;1185;21961;-57
2022/06/02 08:24:07;;;;;;;8.30;4.20;;;;;;;40.81;41.85;100539.41;117001;1187;22923;-56
2022/06/02 08:27:02;;;;;;;9.70;3.60;;;;;;;40.89;41.63;100537.31;117088;1187;23598;-57
2022/06/02 08:29:32;;;;;;;7.10;3.20;;;;;;;41.07;41.52;100536.92;117240;1186;22936;-56
2022/06/02 08:32:00;;;;;;;;;;;;;;;41.24;41.19;100533.62;117239;1182;21914;-55
2022/06/02 08:34:49;;;;;;;8.30;3.30;;;;;;;41.37;41.13;100534.54;117291;1185;21912;-55
2022/06/02 08:37:48;;;;;;;10.60;4.40;;;;;;;41.57;41.19;100536.63;117138;1185;23684;-56
2022/06/02 08:40:48;;;;;;;12.10;3.60;;;;;;;41.84;41.03;100536.33;116960;1188;21854;-55
2022/06/02 08:43:40;;;;;;;9.80;3.90;;;;;;;42.11;40.83;100535.82;117267;1189;21859;-55
2022/06/02 08:46:17;;;;;;;10.80;3.80;;;;;;;42.22;40.37;100534.55;117269;1182;21859;-56
2022/06/02 08:49:08;;;;;;;11.00;4.00;;;;;;;42.11;40.01;100536.08;117313;1185;21861;-55
2022/06/02 08:51:58;;;;;;;14.50;4.00;;;;;;;42.04;39.95;100538.60;117294;1186;22107;-55
2022/06/02 08:54:38;;;;;;;14.70;3.70;;;;;;;42.15;39.84;100536.14;117094;1184;22916;-56
2022/06/02 08:57:57;;;;;;;12.30;3.90;;;;;;;42.19;39.47;100537.16;117311;1186;21856;-56
2022/06/02 09:00:47;;;;;;;9.90;3.70;;;;;;;42.33;39.66;100538.23;117129;1186;23046;-55
2022/06/02 09:03:26;;;;;;;9.90;3.50;;;;;;;42.57;39.61;100541.22;117251;1183;22944;-56
2022/06/02 09:06:31;;;;;;;17.90;4.40;;;;;;;42.83;39.56;100541.42;117415;1185;21846;-58
2022/06/02 09:09:19;;;;;;;14.10;4.00;;;;;;;43.05;39.21;100540.48;117294;1184;24258;-58
2022/06/02 09:12:05;;;;;;;10.00;4.10;;;;;;;43.26;39.06;100541.43;117321;1180;21850;-55
2022/06/02 09:14:45;;;;;;;19.00;4.80;;;;;;;43.45;38.68;100539.17;117134;1181;22617;-55
2022/06/02 09:17:48;;;;;;;7.80;3.30;;;;;;;43.40;38.31;100538.44;117075;1187;22306;-56
2022/06/02 09:20:47;;;;;;;12.30;4.40;;;;;;;43.45;38.53;100539.11;117078;1182;22618;-55
2022/06/02 09:23:33;;;;;;;;;;;;;;;43.64;38.30;100538.42;117369;1185;21832;-56
2022/06/02 09:26:14;;;;;;;7.60;3.60;;;;;;;43.84;38.34;100543.94;116939;1189;23651;-56
2022/06/02 09:29:15;;;;;;;8.20;3.30;;;;;;;44.21;38.51;100545.02;117313;1186;21863;-56
2022/06/02 09:32:19;;;;;;;14.20;3.90;;;;;;;44.67;38.31;100542.52;117384;1182;24219;-56
2022/06/02 09:35:02;;;;;;;9.60;3.80;;;;;;;45.06;38.07;100539.71;117330;1186;21836;-57
2022/06/02 09:38:00;;;;;;;12.80;3.80;;;;;;;45.05;37.40;100538.32;117288;1186;22615;-56
2022/06/02 09:40:46;;;;;;;7.70;3.70;;;;;;;44.37;36.73;100540.61;117317;1183;22908;-55
2022/06/02 09:43:13;;;;;;;11.60;4.20;;;;;;;43.76;36.68;100541.96;117675;1182;24001;-57
2022/06/02 09:46:08;;;;;;;13.00;3.80;;;;;;;43.47;36.81;100538.98;117326;1185;21850;-57
2022/06/02 09:49:07;;;;;;;8.30;3.60;;;;;;;43.04;36.38;100538.48;117314;1182;22039;-56
2022/06/02 09:51:53;;;;;;;10.20;4.00;;;;;;;42.37;36.01;100539.31;117355;1183;21859;-56
2022/06/02 09:54:33;;;;;;;10.90;3.40;;;;;;;41.69;36.08;100538.46;117283;1185;22981;-54
2022/06/02 10:00:22;;;;;;;10.00;3.90;;;;;;;40.73;35.97;100535.56;117282;1180;23631;-54
2022/06/02 10:03:15;;;;;;;11.00;3.80;;;;;;;40.36;36.11;100536.02;117423;1185;22919;-55
2022/06/02 10:06:00;;;;;;;13.50;4.10;;;;;;;40.06;35.89;100536.36;117372;1185;21850;-55
2022/06/02 10:09:07;;;;;;;10.70;3.90;;;;;;;39.76;35.90;100532.35;117382;1185;22915;-55
2022/06/02 10:11:35;;;;;;;12.50;4.70;;;;;;;39.52;36.11;100535.02;117094;1188;22992;-55
2022/06/02 10:14:06;;;;;;;12.60;4.50;;;;;;;39.34;35.97;100535.73;117072;1185;23018;-56
2022/06/02 10:16:55;;;;;;;9.70;3.70;;;;;;;39.11;35.93;100528.16;117149;1186;22934;-56
2022/06/02 10:19:51;;;;;;;12.30;4.00;;;;;;;39.04;36.13;100525.89;117310;1182;22974;-55
2022/06/02 10:22:53;;;;;;;12.70;3.80;;;;;;;39.26;36.52;100518.63;117046;1183;24190;-55
2022/06/02 10:25:39;;;;;;;9.60;4.00;;;;;;;39.76;36.62;100517.95;117327;1182;22935;-55
2022/06/02 10:28:15;;;;;;;9.00;4.00;;;;;;;40.36;36.77;100516.33;117283;1185;24185;-55
2022/06/02 10:30:57;;;;;;;8.90;3.70;;;;;;;40.93;36.60;100508.65;117330;1184;22920;-54
2022/06/02 10:33:49;;;;;;;8.90;3.90;;;;;;;41.44;36.42;100506.98;117312;1184;24178;-56
2022/06/02 10:36:23;;;;;;;7.50;3.10;;;;;;;41.87;36.25;100506.36;117326;1189;21861;-56
2022/06/02 10:39:10;;;;;;;10.90;3.70;;;;;;;42.31;36.14;100502.83;117128;1185;22217;-55
2022/06/02 10:42:03;;;;;;;11.60;3.20;;;;;;;42.73;35.85;100500.50;117328;1185;21852;-56
2022/06/02 10:45:21;;;;;;;10.60;3.70;;;;;;;43.03;35.62;100496.43;117349;1186;22616;-56
2022/06/02 10:48:19;;;;;;;7.30;3.30;;;;;;;43.45;35.45;100491.85;117148;1186;22624;-55
2022/06/02 10:51:07;;;;;;;9.30;3.60;;;;;;;43.82;35.40;100490.41;117309;1182;23553;-55
2022/06/02 10:54:00;;;;;;;11.10;3.80;;;;;;;44.07;35.03;100487.73;117242;1186;22799;-53
2022/06/02 10:57:05;;;;;;;10.70;3.80;;;;;;;44.30;35.06;100485.67;117317;1186;23541;-56
2022/06/02 10:59:53;;;;;;;10.40;4.00;;;;;;;44.47;34.59;100490.91;117389;1186;21841;-55
2022/06/02 11:02:55;;;;;;;8.90;3.30;;;;;;;44.49;34.41;100488.50;117364;1186;22174;-57
2022/06/02 11:05:40;;;;;;;9.20;3.30;;;;;;;44.76;34.35;100486.88;117348;1186;21849;-57
2022/06/02 11:08:51;;;;;;;9.50;3.60;;;;;;;44.83;34.10;100487.26;117332;1185;22978;-57
2022/06/02 11:11:30;;;;;;;8.30;3.70;;;;;;;44.35;33.55;100484.00;117257;1186;22803;-57
2022/06/02 11:14:41;;;;;;;9.70;3.50;;;;;;;43.94;33.60;100488.77;117046;1186;21857;-56
2022/06/02 11:17:28;;;;;;;11.40;3.60;;;;;;;43.67;33.59;100488.98;117354;1185;23458;-55
2022/06/02 11:20:10;;;;;;;10.30;3.60;;;;;;;43.21;33.11;100488.58;117322;1186;21852;-55
2022/06/02 11:23:08;;;;;;;12.40;3.70;;;;;;;42.71;32.96;100485.28;117275;1182;23531;-55
2022/06/02 11:26:14;;;;;;;11.20;4.10;;;;;;;42.04;32.43;100482.23;117340;1182;22988;-55
2022/06/02 11:28:48;;;;;;;13.30;4.50;;;;;;;41.66;32.67;100481.62;117371;1186;21873;-54
2022/06/02 11:31:45;;;;;;;13.10;4.40;;;;;;;41.64;32.81;100477.30;117267;1185;23618;-57
2022/06/02 11:34:16;;;;;;;12.70;4.00;;;;;;;41.62;32.77;100473.88;117313;1189;21851;-56
2022/06/02 11:36:52;;;;;;;14.50;4.30;;;;;;;41.64;32.82;100472.16;117489;1182;22724;-56
2022/06/02 11:39:24;;;;;;;13.60;4.40;;;;;;;41.77;32.90;100475.86;117327;1182;23679;-56
2022/06/02 11:42:35;;;;;;;9.00;3.70;;;;;;;41.91;32.77;100480.13;117219;1182;24193;-55
2022/06/02 11:45:37;;;;;;;8.00;3.60;;;;;;;42.06;32.82;100479.22;117256;1185;21841;-56
2022/06/02 11:48:07;;;;;;;8.60;3.80;;;;;;;42.12;32.72;100470.04;117269;1186;22973;-57
2022/06/02 11:50:42;;;;;;;11.30;4.40;;;;;;;42.29;32.99;100468.98;117400;1185;22893;-54
2022/06/02 11:53:27;;;;;;;10.70;3.90;;;;;;;42.44;32.36;100469.74;117337;1182;23451;-56
2022/06/02 11:55:55;;;;;;;14.40;3.90;;;;;;;42.00;31.77;100470.95;117402;1180;22977;-57
2022/06/02 11:59:08;;;;;;;14.50;4.50;;;;;;;41.23;31.36;100473.80;117236;1185;23538;-55
2022/06/02 12:01:57;;;;;;;12.20;4.20;;;;;;;40.31;31.70;100479.54;117254;1185;21836;-58
2022/06/02 12:04:33;;;;;;;17.00;5.10;;;;;;;39.60;31.77;100483.77;117380;1186;23539;-56
2022/06/02 12:07:37;;;;;;;11.60;4.60;;;;;;;38.99;31.90;100486.19;116891;1187;22028;-55
2022/06/02 12:10:27;;;;;;;13.00;5.00;;;;;;;38.23;32.08;100477.16;117093;1186;22084;-57
2022/06/02 12:13:00;;;;;;;15.90;4.50;;;;;;;37.58;32.45;100473.50;117288;1184;23567;-55
2022/06/02 12:15:27;;;;;;;13.10;4.30;;;;;;;37.09;32.68;100468.73;117264;1186;21936;-55
2022/06/02 12:18:27;;;;;;;14.20;5.20;;;;;;;36.67;32.89;100459.05;117352;1186;22893;-55
2022/06/02 12:21:07;;;;;;;12.80;4.00;;;;;;;36.28;33.11;100453.77;117364;1186;22705;-57
2022/06/02 12:23:53;;;;;;;16.60;5.20;;;;;;;35.96;33.24;100456.05;117397;1181;22610;-56
2022/06/02 12:26:30;;;;;;;10.50;4.30;;;;;;;35.66;33.30;100467.18;117364;1183;21887;-57
2022/06/02 12:29:32;;;;;;;14.20;4.70;;;;;;;35.39;33.42;100482.80;117287;1185;21858;-58
2022/06/02 12:32:35;;;;;;;10.50;4.60;;;;;;;34.95;33.46;100478.38;117379;1180;23731;-56
2022/06/02 12:35:11;;;;;;;11.80;4.50;;;;;;;34.53;33.71;100464.27;117352;1185;23546;-56
2022/06/02 12:38:03;;;;;;;13.00;4.10;;;;;;;34.28;33.95;100452.73;117215;1186;22966;-55
2022/06/02 12:41:01;;;;;;;10.50;4.10;;;;;;;34.10;34.35;100451.34;117199;1185;21853;-57
2022/06/02 12:43:41;;;;;;;10.50;3.90;;;;;;;33.92;34.43;100445.56;117313;1185;22916;-56
2022/06/02 12:46:13;;;;;;;12.60;5.10;;;;;;;33.78;34.55;100439.11;117235;1186;21858;-55